GMML

Hassan I Airport

El Aaiún, Western Sahara
TAF GMML 210500Z 2106/2212 36011KT 8000 NSC
Issued Valid From Valid To
Jun-21 @ 05:00 UTC
(5 hours ago)
Jun-21 @ 06:00 UTC
(4 hours ago)
Jun-22 @ 12:00 UTC
(-1 days ago)
Jun-21 @ 06:00 to Jun-22 @ 12:00
TAF GMML 210500Z 2106/2212 36011KT 8000 NSC
Wind Visibility Clouds
360° at 11 knots 7,998 meters
  • No significant clouds
TAF GMML 210500Z 2106/2212 36011KT 8000 NSC
Issued Jun-21 @ 05:00 UTC
(5 hours ago)
Valid From Jun-21 @ 06:00 UTC
(4 hours ago)
Valid To Jun-22 @ 12:00 UTC
(-1 days ago)
Jun-21 @ 06:00 - Jun-22 @ 12:00
Wind Visibility
360° at 11 knots 7,998 meters
Clouds
  • No significant clouds